sensor_id;sensor_type;location;lat;lon;timestamp;P1;durP1;ratioP1;P2;durP2;ratioP2
29634;SDS011;16557;54.762;56.068;2022-08-19T00:00:08;4.28;;;1.67;;
29634;SDS011;16557;54.762;56.068;2022-08-19T00:02:40;1.95;;;1.05;;
29634;SDS011;16557;54.762;56.068;2022-08-19T00:05:10;2.90;;;1.10;;
29634;SDS011;16557;54.762;56.068;2022-08-19T00:07:41;2.83;;;1.35;;
29634;SDS011;16557;54.762;56.068;2022-08-19T00:10:12;5.28;;;1.72;;
29634;SDS011;16557;54.762;56.068;2022-08-19T00:12:42;7.12;;;2.37;;
29634;SDS011;16557;54.762;56.068;2022-08-19T00:15:13;5.50;;;1.72;;
29634;SDS011;16557;54.762;56.068;2022-08-19T00:17:44;5.80;;;1.70;;
29634;SDS011;16557;54.762;56.068;2022-08-19T00:20:14;3.10;;;1.70;;
29634;SDS011;16557;54.762;56.068;2022-08-19T00:22:46;7.80;;;1.32;;
29634;SDS011;16557;54.762;56.068;2022-08-19T00:25:15;3.72;;;1.80;;
29634;SDS011;16557;54.762;56.068;2022-08-19T00:27:45;8.38;;;1.60;;
29634;SDS011;16557;54.762;56.068;2022-08-19T00:30:14;3.22;;;1.40;;
29634;SDS011;16557;54.762;56.068;2022-08-19T00:32:44;2.85;;;1.20;;
29634;SDS011;16557;54.762;56.068;2022-08-19T00:35:13;2.30;;;1.20;;
29634;SDS011;16557;54.762;56.068;2022-08-19T00:37:42;5.22;;;1.30;;
29634;SDS011;16557;54.762;56.068;2022-08-19T00:40:12;8.08;;;1.90;;
29634;SDS011;16557;54.762;56.068;2022-08-19T00:42:41;5.92;;;1.60;;
29634;SDS011;16557;54.762;56.068;2022-08-19T00:45:12;4.65;;;1.90;;
29634;SDS011;16557;54.762;56.068;2022-08-19T00:47:48;4.28;;;1.35;;
29634;SDS011;16557;54.762;56.068;2022-08-19T00:50:18;3.90;;;1.20;;
29634;SDS011;16557;54.762;56.068;2022-08-19T00:52:49;3.60;;;1.30;;
29634;SDS011;16557;54.762;56.068;2022-08-19T00:55:20;4.97;;;1.60;;
29634;SDS011;16557;54.762;56.068;2022-08-19T00:57:53;4.28;;;1.70;;
29634;SDS011;16557;54.762;56.068;2022-08-19T01:00:24;2.00;;;1.17;;
29634;SDS011;16557;54.762;56.068;2022-08-19T01:02:57;7.08;;;1.95;;
29634;SDS011;16557;54.762;56.068;2022-08-19T01:05:27;4.47;;;1.55;;
29634;SDS011;16557;54.762;56.068;2022-08-19T01:07:58;5.62;;;2.62;;
29634;SDS011;16557;54.762;56.068;2022-08-19T01:10:31;6.05;;;1.90;;
29634;SDS011;16557;54.762;56.068;2022-08-19T01:13:07;2.62;;;1.35;;
29634;SDS011;16557;54.762;56.068;2022-08-19T01:15:42;8.35;;;1.77;;
29634;SDS011;16557;54.762;56.068;2022-08-19T01:18:13;2.10;;;1.27;;
29634;SDS011;16557;54.762;56.068;2022-08-19T01:20:43;3.00;;;1.67;;
29634;SDS011;16557;54.762;56.068;2022-08-19T01:23:13;7.28;;;1.45;;
29634;SDS011;16557;54.762;56.068;2022-08-19T01:25:50;5.75;;;1.80;;
29634;SDS011;16557;54.762;56.068;2022-08-19T01:28:25;4.17;;;1.35;;
29634;SDS011;16557;54.762;56.068;2022-08-19T01:33:23;3.77;;;2.00;;
29634;SDS011;16557;54.762;56.068;2022-08-19T01:35:52;4.85;;;1.70;;
29634;SDS011;16557;54.762;56.068;2022-08-19T01:38:23;2.85;;;1.85;;
29634;SDS011;16557;54.762;56.068;2022-08-19T01:40:55;15.00;;;2.47;;
29634;SDS011;16557;54.762;56.068;2022-08-19T01:43:25;7.40;;;1.65;;
29634;SDS011;16557;54.762;56.068;2022-08-19T01:45:54;8.98;;;2.30;;
29634;SDS011;16557;54.762;56.068;2022-08-19T01:48:24;14.15;;;1.95;;
29634;SDS011;16557;54.762;56.068;2022-08-19T01:50:53;6.15;;;1.90;;
29634;SDS011;16557;54.762;56.068;2022-08-19T01:53:23;3.62;;;1.80;;
29634;SDS011;16557;54.762;56.068;2022-08-19T01:55:52;4.72;;;1.98;;
29634;SDS011;16557;54.762;56.068;2022-08-19T01:58:24;6.17;;;1.90;;
29634;SDS011;16557;54.762;56.068;2022-08-19T02:00:56;4.90;;;1.87;;
29634;SDS011;16557;54.762;56.068;2022-08-19T02:03:26;5.83;;;1.90;;
29634;SDS011;16557;54.762;56.068;2022-08-19T02:05:57;5.42;;;1.47;;
29634;SDS011;16557;54.762;56.068;2022-08-19T02:08:28;6.62;;;1.85;;
29634;SDS011;16557;54.762;56.068;2022-08-19T02:10:58;5.72;;;1.80;;
29634;SDS011;16557;54.762;56.068;2022-08-19T02:13:27;8.53;;;1.90;;
29634;SDS011;16557;54.762;56.068;2022-08-19T02:15:58;7.42;;;2.08;;
29634;SDS011;16557;54.762;56.068;2022-08-19T02:18:27;14.58;;;2.05;;
29634;SDS011;16557;54.762;56.068;2022-08-19T02:20:56;8.98;;;2.58;;
29634;SDS011;16557;54.762;56.068;2022-08-19T02:23:26;10.53;;;2.20;;
29634;SDS011;16557;54.762;56.068;2022-08-19T02:25:55;4.45;;;2.30;;
29634;SDS011;16557;54.762;56.068;2022-08-19T02:28:24;8.68;;;2.62;;
29634;SDS011;16557;54.762;56.068;2022-08-19T02:30:53;7.20;;;2.15;;
29634;SDS011;16557;54.762;56.068;2022-08-19T02:33:23;6.15;;;2.08;;
29634;SDS011;16557;54.762;56.068;2022-08-19T02:35:52;6.95;;;2.05;;
29634;SDS011;16557;54.762;56.068;2022-08-19T02:38:21;7.60;;;2.22;;
29634;SDS011;16557;54.762;56.068;2022-08-19T02:40:58;8.78;;;2.45;;
29634;SDS011;16557;54.762;56.068;2022-08-19T02:43:25;9.80;;;2.30;;
29634;SDS011;16557;54.762;56.068;2022-08-19T02:45:55;4.30;;;2.00;;
29634;SDS011;16557;54.762;56.068;2022-08-19T02:48:25;7.45;;;1.82;;
29634;SDS011;16557;54.762;56.068;2022-08-19T02:50:54;5.37;;;2.00;;
29634;SDS011;16557;54.762;56.068;2022-08-19T02:53:24;6.83;;;1.90;;
29634;SDS011;16557;54.762;56.068;2022-08-19T02:55:55;6.92;;;2.27;;
29634;SDS011;16557;54.762;56.068;2022-08-19T02:58:24;5.70;;;1.70;;
29634;SDS011;16557;54.762;56.068;2022-08-19T03:00:54;9.33;;;2.08;;
29634;SDS011;16557;54.762;56.068;2022-08-19T03:03:24;6.58;;;2.25;;
29634;SDS011;16557;54.762;56.068;2022-08-19T03:06:13;5.35;;;2.10;;
29634;SDS011;16557;54.762;56.068;2022-08-19T03:08:41;11.25;;;2.40;;
29634;SDS011;16557;54.762;56.068;2022-08-19T03:11:12;8.35;;;2.12;;
29634;SDS011;16557;54.762;56.068;2022-08-19T03:13:44;20.50;;;2.37;;
29634;SDS011;16557;54.762;56.068;2022-08-19T03:16:19;13.62;;;2.52;;
29634;SDS011;16557;54.762;56.068;2022-08-19T03:18:51;14.78;;;3.52;;
29634;SDS011;16557;54.762;56.068;2022-08-19T03:21:22;15.98;;;2.58;;
29634;SDS011;16557;54.762;56.068;2022-08-19T03:23:53;10.98;;;2.45;;
29634;SDS011;16557;54.762;56.068;2022-08-19T03:26:23;6.22;;;2.98;;
29634;SDS011;16557;54.762;56.068;2022-08-19T03:28:55;8.78;;;2.50;;
29634;SDS011;16557;54.762;56.068;2022-08-19T03:31:26;5.70;;;2.22;;
29634;SDS011;16557;54.762;56.068;2022-08-19T03:33:55;17.90;;;3.70;;
29634;SDS011;16557;54.762;56.068;2022-08-19T03:36:26;8.05;;;2.10;;
29634;SDS011;16557;54.762;56.068;2022-08-19T03:38:56;9.90;;;3.10;;
29634;SDS011;16557;54.762;56.068;2022-08-19T03:41:28;10.43;;;2.77;;
29634;SDS011;16557;54.762;56.068;2022-08-19T03:43:59;12.15;;;2.58;;
29634;SDS011;16557;54.762;56.068;2022-08-19T03:46:29;12.70;;;2.45;;
29634;SDS011;16557;54.762;56.068;2022-08-19T03:49:00;8.20;;;2.35;;
29634;SDS011;16557;54.762;56.068;2022-08-19T03:51:38;11.83;;;2.02;;
29634;SDS011;16557;54.762;56.068;2022-08-19T03:54:11;11.80;;;2.75;;
29634;SDS011;16557;54.762;56.068;2022-08-19T03:56:36;11.68;;;2.70;;
29634;SDS011;16557;54.762;56.068;2022-08-19T03:59:08;10.98;;;2.50;;
29634;SDS011;16557;54.762;56.068;2022-08-19T04:01:38;8.73;;;2.52;;
29634;SDS011;16557;54.762;56.068;2022-08-19T04:04:08;20.43;;;3.60;;
29634;SDS011;16557;54.762;56.068;2022-08-19T04:06:37;13.55;;;2.75;;
29634;SDS011;16557;54.762;56.068;2022-08-19T04:09:08;9.93;;;2.90;;
29634;SDS011;16557;54.762;56.068;2022-08-19T04:11:40;7.83;;;2.45;;
29634;SDS011;16557;54.762;56.068;2022-08-19T04:14:12;14.18;;;2.60;;
29634;SDS011;16557;54.762;56.068;2022-08-19T04:16:42;12.20;;;2.42;;
29634;SDS011;16557;54.762;56.068;2022-08-19T04:19:12;15.75;;;2.83;;
29634;SDS011;16557;54.762;56.068;2022-08-19T04:21:46;12.58;;;2.67;;
29634;SDS011;16557;54.762;56.068;2022-08-19T04:24:17;8.05;;;2.47;;
29634;SDS011;16557;54.762;56.068;2022-08-19T04:26:47;8.98;;;2.42;;
29634;SDS011;16557;54.762;56.068;2022-08-19T04:29:21;7.53;;;2.25;;
29634;SDS011;16557;54.762;56.068;2022-08-19T04:31:58;18.70;;;3.67;;
29634;SDS011;16557;54.762;56.068;2022-08-19T04:34:25;11.53;;;3.05;;
29634;SDS011;16557;54.762;56.068;2022-08-19T04:36:57;11.78;;;4.95;;
29634;SDS011;16557;54.762;56.068;2022-08-19T04:39:29;8.33;;;2.60;;
29634;SDS011;16557;54.762;56.068;2022-08-19T04:42:16;8.20;;;2.58;;
29634;SDS011;16557;54.762;56.068;2022-08-19T04:45:10;10.25;;;2.67;;
29634;SDS011;16557;54.762;56.068;2022-08-19T04:47:37;15.05;;;3.58;;
29634;SDS011;16557;54.762;56.068;2022-08-19T04:50:08;9.93;;;3.60;;
29634;SDS011;16557;54.762;56.068;2022-08-19T04:52:45;8.20;;;2.62;;
29634;SDS011;16557;54.762;56.068;2022-08-19T04:55:16;14.20;;;2.77;;
29634;SDS011;16557;54.762;56.068;2022-08-19T04:57:46;9.98;;;3.35;;
29634;SDS011;16557;54.762;56.068;2022-08-19T05:00:19;11.15;;;3.05;;
29634;SDS011;16557;54.762;56.068;2022-08-19T05:02:48;6.67;;;3.05;;
29634;SDS011;16557;54.762;56.068;2022-08-19T05:05:18;8.33;;;3.35;;
29634;SDS011;16557;54.762;56.068;2022-08-19T05:07:48;6.58;;;3.58;;
29634;SDS011;16557;54.762;56.068;2022-08-19T05:10:17;10.43;;;3.55;;
29634;SDS011;16557;54.762;56.068;2022-08-19T05:12:47;9.30;;;3.92;;
29634;SDS011;16557;54.762;56.068;2022-08-19T05:15:17;9.58;;;3.60;;
29634;SDS011;16557;54.762;56.068;2022-08-19T05:17:51;13.55;;;3.60;;
29634;SDS011;16557;54.762;56.068;2022-08-19T05:20:21;17.37;;;4.55;;
29634;SDS011;16557;54.762;56.068;2022-08-19T05:23:10;10.95;;;4.37;;
29634;SDS011;16557;54.762;56.068;2022-08-19T05:25:48;14.95;;;4.75;;
29634;SDS011;16557;54.762;56.068;2022-08-19T05:28:20;10.93;;;3.20;;
29634;SDS011;16557;54.762;56.068;2022-08-19T05:30:49;11.73;;;3.60;;
29634;SDS011;16557;54.762;56.068;2022-08-19T05:33:19;8.63;;;3.17;;
29634;SDS011;16557;54.762;56.068;2022-08-19T05:35:52;8.25;;;2.15;;
29634;SDS011;16557;54.762;56.068;2022-08-19T05:38:24;7.10;;;2.17;;
29634;SDS011;16557;54.762;56.068;2022-08-19T05:40:54;8.88;;;2.05;;
29634;SDS011;16557;54.762;56.068;2022-08-19T05:43:24;8.05;;;2.12;;
29634;SDS011;16557;54.762;56.068;2022-08-19T05:45:53;5.47;;;1.90;;
29634;SDS011;16557;54.762;56.068;2022-08-19T05:48:22;11.03;;;3.37;;
29634;SDS011;16557;54.762;56.068;2022-08-19T05:50:52;5.78;;;1.55;;
29634;SDS011;16557;54.762;56.068;2022-08-19T05:53:21;4.50;;;1.50;;
29634;SDS011;16557;54.762;56.068;2022-08-19T05:55:53;12.35;;;2.33;;
29634;SDS011;16557;54.762;56.068;2022-08-19T05:58:23;12.37;;;2.90;;
29634;SDS011;16557;54.762;56.068;2022-08-19T06:01:01;3.35;;;1.57;;
29634;SDS011;16557;54.762;56.068;2022-08-19T06:03:34;6.80;;;1.77;;
29634;SDS011;16557;54.762;56.068;2022-08-19T06:06:12;7.83;;;2.45;;
29634;SDS011;16557;54.762;56.068;2022-08-19T06:08:37;11.03;;;2.77;;
29634;SDS011;16557;54.762;56.068;2022-08-19T06:11:23;7.75;;;2.08;;
29634;SDS011;16557;54.762;56.068;2022-08-19T06:13:54;7.75;;;2.27;;
29634;SDS011;16557;54.762;56.068;2022-08-19T06:16:24;8.00;;;2.10;;
29634;SDS011;16557;54.762;56.068;2022-08-19T06:18:56;5.70;;;1.87;;
29634;SDS011;16557;54.762;56.068;2022-08-19T06:21:27;7.80;;;1.72;;
29634;SDS011;16557;54.762;56.068;2022-08-19T06:23:57;9.40;;;2.08;;
29634;SDS011;16557;54.762;56.068;2022-08-19T06:26:29;5.22;;;1.50;;
29634;SDS011;16557;54.762;56.068;2022-08-19T06:29:02;3.80;;;1.57;;
29634;SDS011;16557;54.762;56.068;2022-08-19T06:31:34;4.15;;;1.50;;
29634;SDS011;16557;54.762;56.068;2022-08-19T06:34:10;5.70;;;1.60;;
29634;SDS011;16557;54.762;56.068;2022-08-19T06:36:44;2.70;;;1.52;;
29634;SDS011;16557;54.762;56.068;2022-08-19T06:39:16;8.40;;;1.92;;
29634;SDS011;16557;54.762;56.068;2022-08-19T06:41:50;6.67;;;2.40;;
29634;SDS011;16557;54.762;56.068;2022-08-19T06:44:22;7.78;;;1.77;;
29634;SDS011;16557;54.762;56.068;2022-08-19T06:46:54;6.33;;;2.58;;
29634;SDS011;16557;54.762;56.068;2022-08-19T06:49:27;9.20;;;2.40;;
29634;SDS011;16557;54.762;56.068;2022-08-19T06:51:58;8.40;;;2.55;;
29634;SDS011;16557;54.762;56.068;2022-08-19T06:54:28;3.83;;;1.75;;
29634;SDS011;16557;54.762;56.068;2022-08-19T06:56:58;4.80;;;1.70;;
29634;SDS011;16557;54.762;56.068;2022-08-19T06:59:31;6.05;;;1.98;;
29634;SDS011;16557;54.762;56.068;2022-08-19T07:02:02;9.48;;;1.98;;
29634;SDS011;16557;54.762;56.068;2022-08-19T07:04:34;10.35;;;2.47;;
29634;SDS011;16557;54.762;56.068;2022-08-19T07:07:10;8.13;;;1.70;;
29634;SDS011;16557;54.762;56.068;2022-08-19T07:09:41;3.50;;;2.08;;
29634;SDS011;16557;54.762;56.068;2022-08-19T07:12:12;11.55;;;2.60;;
29634;SDS011;16557;54.762;56.068;2022-08-19T07:14:42;4.53;;;1.80;;
29634;SDS011;16557;54.762;56.068;2022-08-19T07:17:13;11.33;;;2.40;;
29634;SDS011;16557;54.762;56.068;2022-08-19T07:19:43;9.25;;;2.50;;
29634;SDS011;16557;54.762;56.068;2022-08-19T07:22:16;11.20;;;3.62;;
29634;SDS011;16557;54.762;56.068;2022-08-19T07:24:55;4.97;;;2.50;;
29634;SDS011;16557;54.762;56.068;2022-08-19T07:27:24;7.53;;;2.87;;
29634;SDS011;16557;54.762;56.068;2022-08-19T07:29:54;4.53;;;2.15;;
29634;SDS011;16557;54.762;56.068;2022-08-19T07:32:23;7.40;;;2.77;;
29634;SDS011;16557;54.762;56.068;2022-08-19T07:34:54;3.52;;;2.75;;
29634;SDS011;16557;54.762;56.068;2022-08-19T07:37:24;4.47;;;2.80;;
29634;SDS011;16557;54.762;56.068;2022-08-19T07:39:55;10.13;;;2.80;;
29634;SDS011;16557;54.762;56.068;2022-08-19T07:42:24;7.00;;;3.12;;
29634;SDS011;16557;54.762;56.068;2022-08-19T07:44:57;4.15;;;2.60;;
29634;SDS011;16557;54.762;56.068;2022-08-19T07:47:28;7.35;;;3.15;;
29634;SDS011;16557;54.762;56.068;2022-08-19T07:49:58;5.72;;;2.98;;
29634;SDS011;16557;54.762;56.068;2022-08-19T07:52:29;6.03;;;3.05;;
29634;SDS011;16557;54.762;56.068;2022-08-19T07:55:01;5.65;;;2.95;;
29634;SDS011;16557;54.762;56.068;2022-08-19T07:57:31;11.05;;;3.00;;
29634;SDS011;16557;54.762;56.068;2022-08-19T08:00:01;7.78;;;3.05;;
29634;SDS011;16557;54.762;56.068;2022-08-19T08:02:32;5.20;;;3.10;;
29634;SDS011;16557;54.762;56.068;2022-08-19T08:05:03;5.15;;;2.70;;
29634;SDS011;16557;54.762;56.068;2022-08-19T08:07:50;4.10;;;2.77;;
29634;SDS011;16557;54.762;56.068;2022-08-19T08:10:37;11.28;;;3.20;;
29634;SDS011;16557;54.762;56.068;2022-08-19T08:13:10;13.30;;;3.62;;
29634;SDS011;16557;54.762;56.068;2022-08-19T08:15:49;6.50;;;2.80;;
29634;SDS011;16557;54.762;56.068;2022-08-19T08:18:16;9.95;;;2.58;;
29634;SDS011;16557;54.762;56.068;2022-08-19T08:20:46;8.45;;;3.40;;
29634;SDS011;16557;54.762;56.068;2022-08-19T08:23:15;7.47;;;3.30;;
29634;SDS011;16557;54.762;56.068;2022-08-19T08:25:58;6.50;;;2.95;;
29634;SDS011;16557;54.762;56.068;2022-08-19T08:28:29;3.62;;;3.00;;
29634;SDS011;16557;54.762;56.068;2022-08-19T08:30:59;11.97;;;3.37;;
29634;SDS011;16557;54.762;56.068;2022-08-19T08:33:31;5.58;;;3.47;;
29634;SDS011;16557;54.762;56.068;2022-08-19T08:36:06;12.07;;;3.10;;
29634;SDS011;16557;54.762;56.068;2022-08-19T08:38:36;6.28;;;2.85;;
29634;SDS011;16557;54.762;56.068;2022-08-19T08:41:09;6.65;;;3.20;;
29634;SDS011;16557;54.762;56.068;2022-08-19T08:43:44;6.50;;;2.95;;
29634;SDS011;16557;54.762;56.068;2022-08-19T08:46:19;8.50;;;3.25;;
29634;SDS011;16557;54.762;56.068;2022-08-19T08:51:27;15.88;;;4.75;;
29634;SDS011;16557;54.762;56.068;2022-08-19T08:53:57;6.30;;;3.15;;
29634;SDS011;16557;54.762;56.068;2022-08-19T08:56:27;7.60;;;3.15;;
29634;SDS011;16557;54.762;56.068;2022-08-19T08:58:58;8.00;;;3.27;;
29634;SDS011;16557;54.762;56.068;2022-08-19T09:01:30;5.55;;;3.40;;
29634;SDS011;16557;54.762;56.068;2022-08-19T09:03:59;6.15;;;2.98;;
29634;SDS011;16557;54.762;56.068;2022-08-19T09:12:17;8.15;;;3.40;;
29634;SDS011;16557;54.762;56.068;2022-08-19T09:14:56;6.30;;;3.60;;
29634;SDS011;16557;54.762;56.068;2022-08-19T09:17:29;4.75;;;3.60;;
29634;SDS011;16557;54.762;56.068;2022-08-19T09:20:03;9.03;;;3.52;;
29634;SDS011;16557;54.762;56.068;2022-08-19T09:22:37;8.58;;;3.70;;
29634;SDS011;16557;54.762;56.068;2022-08-19T09:25:13;4.62;;;3.60;;
29634;SDS011;16557;54.762;56.068;2022-08-19T09:27:43;4.37;;;3.00;;
29634;SDS011;16557;54.762;56.068;2022-08-19T09:30:14;5.53;;;3.40;;
29634;SDS011;16557;54.762;56.068;2022-08-19T09:32:48;5.72;;;3.25;;
29634;SDS011;16557;54.762;56.068;2022-08-19T09:35:22;11.55;;;3.85;;
29634;SDS011;16557;54.762;56.068;2022-08-19T09:37:54;4.53;;;3.40;;
29634;SDS011;16557;54.762;56.068;2022-08-19T09:40:24;5.60;;;3.22;;
29634;SDS011;16557;54.762;56.068;2022-08-19T09:42:59;4.45;;;3.25;;
29634;SDS011;16557;54.762;56.068;2022-08-19T09:45:30;7.53;;;2.87;;
29634;SDS011;16557;54.762;56.068;2022-08-19T09:47:59;6.78;;;3.70;;
29634;SDS011;16557;54.762;56.068;2022-08-19T09:50:28;4.75;;;3.12;;
29634;SDS011;16557;54.762;56.068;2022-08-19T09:52:59;5.15;;;3.27;;
29634;SDS011;16557;54.762;56.068;2022-08-19T09:55:29;8.23;;;3.08;;
29634;SDS011;16557;54.762;56.068;2022-08-19T09:57:59;6.05;;;3.40;;
29634;SDS011;16557;54.762;56.068;2022-08-19T10:00:29;6.65;;;3.00;;
29634;SDS011;16557;54.762;56.068;2022-08-19T10:02:59;3.42;;;3.12;;
29634;SDS011;16557;54.762;56.068;2022-08-19T10:05:28;9.93;;;3.58;;
29634;SDS011;16557;54.762;56.068;2022-08-19T10:11:03;8.65;;;3.22;;
29634;SDS011;16557;54.762;56.068;2022-08-19T10:13:33;16.20;;;4.28;;
29634;SDS011;16557;54.762;56.068;2022-08-19T10:16:07;3.27;;;2.85;;
29634;SDS011;16557;54.762;56.068;2022-08-19T10:18:38;4.25;;;3.22;;
29634;SDS011;16557;54.762;56.068;2022-08-19T10:21:10;5.87;;;3.33;;
29634;SDS011;16557;54.762;56.068;2022-08-19T10:23:44;3.75;;;2.80;;
29634;SDS011;16557;54.762;56.068;2022-08-19T10:26:16;6.25;;;4.08;;
29634;SDS011;16557;54.762;56.068;2022-08-19T10:28:48;7.03;;;3.42;;
29634;SDS011;16557;54.762;56.068;2022-08-19T10:31:21;13.18;;;4.10;;
29634;SDS011;16557;54.762;56.068;2022-08-19T10:33:57;6.37;;;3.55;;
29634;SDS011;16557;54.762;56.068;2022-08-19T10:36:30;13.70;;;3.70;;
29634;SDS011;16557;54.762;56.068;2022-08-19T10:39:00;13.18;;;6.55;;
29634;SDS011;16557;54.762;56.068;2022-08-19T10:41:32;12.00;;;4.77;;
29634;SDS011;16557;54.762;56.068;2022-08-19T10:44:07;5.40;;;2.92;;
29634;SDS011;16557;54.762;56.068;2022-08-19T10:46:39;5.37;;;2.60;;
29634;SDS011;16557;54.762;56.068;2022-08-19T10:49:09;9.30;;;3.02;;
29634;SDS011;16557;54.762;56.068;2022-08-19T10:54:28;9.55;;;3.80;;
29634;SDS011;16557;54.762;56.068;2022-08-19T10:57:15;10.80;;;3.50;;
29634;SDS011;16557;54.762;56.068;2022-08-19T10:59:44;7.17;;;2.92;;
29634;SDS011;16557;54.762;56.068;2022-08-19T11:02:14;4.92;;;3.52;;
29634;SDS011;16557;54.762;56.068;2022-08-19T11:04:44;10.00;;;2.85;;
29634;SDS011;16557;54.762;56.068;2022-08-19T11:07:13;8.48;;;3.35;;
29634;SDS011;16557;54.762;56.068;2022-08-19T11:09:42;6.60;;;3.22;;
29634;SDS011;16557;54.762;56.068;2022-08-19T11:12:14;6.40;;;3.58;;
29634;SDS011;16557;54.762;56.068;2022-08-19T11:14:44;10.65;;;3.33;;
29634;SDS011;16557;54.762;56.068;2022-08-19T11:17:18;3.80;;;3.15;;
29634;SDS011;16557;54.762;56.068;2022-08-19T11:19:50;7.20;;;3.12;;
29634;SDS011;16557;54.762;56.068;2022-08-19T11:22:19;6.47;;;3.25;;
29634;SDS011;16557;54.762;56.068;2022-08-19T11:24:48;7.53;;;3.02;;
29634;SDS011;16557;54.762;56.068;2022-08-19T11:27:17;5.75;;;3.10;;
29634;SDS011;16557;54.762;56.068;2022-08-19T11:29:47;7.87;;;2.77;;
29634;SDS011;16557;54.762;56.068;2022-08-19T11:32:16;8.88;;;3.02;;
29634;SDS011;16557;54.762;56.068;2022-08-19T11:34:45;4.90;;;3.17;;
29634;SDS011;16557;54.762;56.068;2022-08-19T11:37:15;4.35;;;3.27;;
29634;SDS011;16557;54.762;56.068;2022-08-19T11:39:44;6.60;;;3.62;;
29634;SDS011;16557;54.762;56.068;2022-08-19T11:42:14;5.80;;;3.30;;
29634;SDS011;16557;54.762;56.068;2022-08-19T11:45:10;4.20;;;2.72;;
29634;SDS011;16557;54.762;56.068;2022-08-19T11:47:41;4.22;;;3.15;;
29634;SDS011;16557;54.762;56.068;2022-08-19T11:50:11;5.83;;;3.65;;
29634;SDS011;16557;54.762;56.068;2022-08-19T11:52:41;7.20;;;3.15;;
29634;SDS011;16557;54.762;56.068;2022-08-19T11:55:12;5.47;;;3.25;;
29634;SDS011;16557;54.762;56.068;2022-08-19T11:57:44;5.78;;;3.60;;
29634;SDS011;16557;54.762;56.068;2022-08-19T12:00:14;5.85;;;3.17;;
29634;SDS011;16557;54.762;56.068;2022-08-19T12:02:43;11.60;;;3.17;;
29634;SDS011;16557;54.762;56.068;2022-08-19T12:05:12;6.25;;;3.22;;
29634;SDS011;16557;54.762;56.068;2022-08-19T12:07:42;5.72;;;3.30;;
29634;SDS011;16557;54.762;56.068;2022-08-19T12:10:11;7.22;;;3.65;;
29634;SDS011;16557;54.762;56.068;2022-08-19T12:12:41;6.33;;;3.15;;
29634;SDS011;16557;54.762;56.068;2022-08-19T12:15:12;7.78;;;3.50;;
29634;SDS011;16557;54.762;56.068;2022-08-19T12:17:42;8.88;;;3.40;;
29634;SDS011;16557;54.762;56.068;2022-08-19T12:20:14;6.27;;;3.40;;
29634;SDS011;16557;54.762;56.068;2022-08-19T12:22:44;8.05;;;3.58;;
29634;SDS011;16557;54.762;56.068;2022-08-19T12:25:15;9.28;;;3.70;;
29634;SDS011;16557;54.762;56.068;2022-08-19T12:27:45;9.55;;;3.85;;
29634;SDS011;16557;54.762;56.068;2022-08-19T12:30:14;4.12;;;3.40;;
29634;SDS011;16557;54.762;56.068;2022-08-19T12:32:43;4.75;;;2.90;;
29634;SDS011;16557;54.762;56.068;2022-08-19T12:35:13;5.30;;;3.30;;
29634;SDS011;16557;54.762;56.068;2022-08-19T12:37:42;9.13;;;3.87;;
29634;SDS011;16557;54.762;56.068;2022-08-19T12:40:12;8.00;;;3.90;;
29634;SDS011;16557;54.762;56.068;2022-08-19T12:42:47;9.08;;;4.12;;
29634;SDS011;16557;54.762;56.068;2022-08-19T12:45:17;7.42;;;3.77;;
29634;SDS011;16557;54.762;56.068;2022-08-19T12:47:47;7.55;;;3.50;;
29634;SDS011;16557;54.762;56.068;2022-08-19T12:50:16;7.72;;;3.35;;
29634;SDS011;16557;54.762;56.068;2022-08-19T12:52:49;6.35;;;3.40;;
29634;SDS011;16557;54.762;56.068;2022-08-19T12:55:18;5.28;;;3.33;;
29634;SDS011;16557;54.762;56.068;2022-08-19T12:57:47;11.33;;;3.50;;
29634;SDS011;16557;54.762;56.068;2022-08-19T13:00:18;10.00;;;3.92;;
29634;SDS011;16557;54.762;56.068;2022-08-19T13:02:50;7.40;;;3.62;;
29634;SDS011;16557;54.762;56.068;2022-08-19T13:05:22;10.30;;;3.75;;
29634;SDS011;16557;54.762;56.068;2022-08-19T13:07:52;6.15;;;3.35;;
29634;SDS011;16557;54.762;56.068;2022-08-19T13:10:28;7.08;;;4.85;;
29634;SDS011;16557;54.762;56.068;2022-08-19T13:13:00;5.47;;;3.65;;
29634;SDS011;16557;54.762;56.068;2022-08-19T13:15:33;10.95;;;4.17;;
29634;SDS011;16557;54.762;56.068;2022-08-19T13:18:09;9.30;;;3.62;;
29634;SDS011;16557;54.762;56.068;2022-08-19T13:20:36;7.15;;;3.00;;
29634;SDS011;16557;54.762;56.068;2022-08-19T13:23:08;8.50;;;3.47;;
29634;SDS011;16557;54.762;56.068;2022-08-19T13:25:37;3.50;;;2.87;;
29634;SDS011;16557;54.762;56.068;2022-08-19T13:28:06;4.08;;;3.27;;
29634;SDS011;16557;54.762;56.068;2022-08-19T13:30:35;5.00;;;3.22;;
29634;SDS011;16557;54.762;56.068;2022-08-19T13:33:22;6.10;;;3.72;;
29634;SDS011;16557;54.762;56.068;2022-08-19T13:35:56;6.30;;;3.75;;
29634;SDS011;16557;54.762;56.068;2022-08-19T13:38:27;9.53;;;4.10;;
29634;SDS011;16557;54.762;56.068;2022-08-19T13:40:57;5.83;;;3.45;;
29634;SDS011;16557;54.762;56.068;2022-08-19T13:43:30;6.00;;;4.05;;
29634;SDS011;16557;54.762;56.068;2022-08-19T13:45:59;12.28;;;3.58;;
29634;SDS011;16557;54.762;56.068;2022-08-19T13:48:29;5.42;;;3.27;;
29634;SDS011;16557;54.762;56.068;2022-08-19T13:50:59;4.70;;;3.00;;
29634;SDS011;16557;54.762;56.068;2022-08-19T13:53:31;6.17;;;3.12;;
29634;SDS011;16557;54.762;56.068;2022-08-19T13:56:00;7.05;;;3.80;;
29634;SDS011;16557;54.762;56.068;2022-08-19T13:58:29;9.00;;;3.87;;
29634;SDS011;16557;54.762;56.068;2022-08-19T14:00:58;6.00;;;3.50;;
29634;SDS011;16557;54.762;56.068;2022-08-19T14:03:28;12.20;;;5.58;;
29634;SDS011;16557;54.762;56.068;2022-08-19T14:05:57;7.87;;;3.92;;
29634;SDS011;16557;54.762;56.068;2022-08-19T14:08:27;4.40;;;3.40;;
29634;SDS011;16557;54.762;56.068;2022-08-19T14:10:58;8.28;;;3.75;;
29634;SDS011;16557;54.762;56.068;2022-08-19T14:13:27;12.80;;;4.87;;
29634;SDS011;16557;54.762;56.068;2022-08-19T14:15:58;9.48;;;3.85;;
29634;SDS011;16557;54.762;56.068;2022-08-19T14:18:27;11.22;;;3.60;;
29634;SDS011;16557;54.762;56.068;2022-08-19T14:20:57;7.87;;;3.62;;
29634;SDS011;16557;54.762;56.068;2022-08-19T14:23:26;9.00;;;3.58;;
29634;SDS011;16557;54.762;56.068;2022-08-19T14:26:02;8.05;;;3.25;;
29634;SDS011;16557;54.762;56.068;2022-08-19T14:28:35;6.90;;;3.20;;
29634;SDS011;16557;54.762;56.068;2022-08-19T14:31:04;5.83;;;2.75;;
29634;SDS011;16557;54.762;56.068;2022-08-19T14:33:33;9.05;;;3.17;;
29634;SDS011;16557;54.762;56.068;2022-08-19T14:36:03;9.25;;;3.27;;
29634;SDS011;16557;54.762;56.068;2022-08-19T14:38:33;12.53;;;5.67;;
29634;SDS011;16557;54.762;56.068;2022-08-19T14:41:10;11.80;;;4.12;;
29634;SDS011;16557;54.762;56.068;2022-08-19T14:43:45;6.37;;;3.58;;
29634;SDS011;16557;54.762;56.068;2022-08-19T14:46:16;9.65;;;3.22;;
29634;SDS011;16557;54.762;56.068;2022-08-19T14:48:48;7.92;;;3.20;;
29634;SDS011;16557;54.762;56.068;2022-08-19T14:51:18;8.20;;;3.17;;
29634;SDS011;16557;54.762;56.068;2022-08-19T14:53:48;15.45;;;3.90;;
29634;SDS011;16557;54.762;56.068;2022-08-19T14:56:20;8.53;;;3.60;;
29634;SDS011;16557;54.762;56.068;2022-08-19T14:58:51;8.83;;;3.75;;
29634;SDS011;16557;54.762;56.068;2022-08-19T15:01:21;9.80;;;3.27;;
29634;SDS011;16557;54.762;56.068;2022-08-19T15:03:51;11.63;;;3.50;;
29634;SDS011;16557;54.762;56.068;2022-08-19T15:06:23;10.48;;;3.95;;
29634;SDS011;16557;54.762;56.068;2022-08-19T15:08:53;8.70;;;3.37;;
29634;SDS011;16557;54.762;56.068;2022-08-19T15:11:23;8.85;;;4.30;;